Terminal Aerodrome Forecast
Issued by NWS Louisville, KY

Home | Current Version | Previous Version | Text Only | Print | Product List | Glossary On
Versions: 1 2 3 4 5 6 7 8 9 10 11 12 13 14 15
000
FTUS43 KLMK 220500
TAFBWG
TAF
KBWG 220524Z 2206/2306 24007KT P6SM VCSH BKN070
     FM220900 26005KT 5SM BR VCSH BKN025
     FM221400 32010KT P6SM BKN015
     FM222000 34010KT P6SM SCT030
     FM230000 33006KT P6SM SKC=

USA.gov is the U.S. government's official web portal to all federal, state and local government web resources and services.